createdAt,value
2018-12-03T00:02:05.273Z,88.90
2018-12-03T00:07:13.490Z,89.10
2018-12-03T00:12:17.698Z,88.60
2018-12-03T00:17:21.915Z,87.80
2018-12-03T00:22:25.497Z,88.50
2018-12-03T00:27:32.755Z,87.90
2018-12-03T00:32:36.733Z,86.90
2018-12-03T00:37:40.369Z,87.70
2018-12-03T00:42:43.925Z,87.60
2018-12-03T00:47:47.493Z,87.80
2018-12-03T00:52:51.066Z,89.70
2018-12-03T00:57:54.620Z,88.40
2018-12-03T01:02:58.231Z,87.90
2018-12-03T01:08:02.238Z,87.70
2018-12-03T01:13:06.876Z,87.10
2018-12-03T01:18:10.509Z,87.20
2018-12-03T01:23:14.096Z,86.90
2018-12-03T01:28:17.677Z,86.50
2018-12-03T01:33:21.261Z,87.00
2018-12-03T01:38:24.832Z,85.70
2018-12-03T01:43:28.397Z,85.20
2018-12-03T01:48:31.976Z,85.60
2018-12-03T01:53:35.547Z,85.30
2018-12-03T01:58:39.101Z,85.70
2018-12-03T02:03:42.955Z,85.80
2018-12-03T02:08:46.507Z,86.60
2018-12-03T02:13:50.069Z,86.10
2018-12-03T02:18:53.620Z,86.60
2018-12-03T02:23:57.182Z,87.00
2018-12-03T02:29:00.915Z,86.80
2018-12-03T02:34:04.864Z,87.30
2018-12-03T02:39:08.985Z,88.30
2018-12-03T02:44:12.549Z,89.00
2018-12-03T02:49:17.266Z,89.40
2018-12-03T02:54:20.829Z,89.40
2018-12-03T02:59:24.637Z,89.20
2018-12-03T03:04:28.453Z,89.30
2018-12-03T03:09:33.719Z,89.30
2018-12-03T03:14:37.255Z,90.00
2018-12-03T03:19:41.830Z,90.50
2018-12-03T03:24:45.802Z,90.50
2018-12-03T03:29:50.323Z,90.30
2018-12-03T03:34:54.590Z,90.20
2018-12-03T03:39:58.173Z,90.10
2018-12-03T03:45:01.756Z,90.00
2018-12-03T03:50:06.549Z,90.00
2018-12-03T03:55:11.199Z,89.70
2018-12-03T04:00:15.806Z,89.60
2018-12-03T04:05:20.885Z,89.80
2018-12-03T04:10:24.477Z,89.50
2018-12-03T04:15:28.108Z,89.10
2018-12-03T04:20:31.812Z,88.80
2018-12-03T04:25:35.396Z,88.60
2018-12-03T04:30:39.328Z,88.00
2018-12-03T04:35:42.885Z,88.50
2018-12-03T04:40:46.686Z,89.00
2018-12-03T04:45:50.240Z,88.40
2018-12-03T04:50:54.113Z,88.10
2018-12-03T04:55:57.670Z,87.90
2018-12-03T05:01:01.222Z,88.50
2018-12-03T05:06:05.137Z,87.60
2018-12-03T05:11:08.680Z,88.10
2018-12-03T05:16:12.276Z,88.50
2018-12-03T05:21:15.893Z,88.90
2018-12-03T05:26:19.503Z,88.90
2018-12-03T05:31:23.677Z,88.00
2018-12-03T05:36:27.234Z,87.40
2018-12-03T05:41:30.842Z,87.70
2018-12-03T05:46:34.909Z,86.90
2018-12-03T05:51:38.338Z,87.80
2018-12-03T05:56:42.278Z,88.00
2018-12-03T06:01:46.196Z,89.20
2018-12-03T06:06:50.099Z,90.10
2018-12-03T06:11:54.412Z,90.40
2018-12-03T06:16:59.312Z,90.40
2018-12-03T06:22:03.144Z,90.10
2018-12-03T06:27:07.036Z,90.30
2018-12-03T06:32:10.643Z,90.20
2018-12-03T06:37:14.191Z,90.20
2018-12-03T06:42:17.793Z,90.40
2018-12-03T06:47:21.364Z,90.40
2018-12-03T06:52:24.912Z,90.40
2018-12-03T06:57:28.504Z,90.30
2018-12-03T07:02:32.166Z,90.10
2018-12-03T07:07:35.761Z,90.20
2018-12-03T07:12:39.457Z,89.90
2018-12-03T07:17:43.628Z,89.90
2018-12-03T07:22:47.744Z,90.20
2018-12-03T07:27:52.348Z,90.50
2018-12-03T07:32:55.919Z,90.50
2018-12-03T07:37:59.517Z,90.20
2018-12-03T07:43:03.193Z,90.20
2018-12-03T07:48:07.277Z,90.10
2018-12-03T07:53:10.865Z,89.80
2018-12-03T07:58:18.330Z,88.90
2018-12-03T08:03:22.188Z,88.00
2018-12-03T08:08:26.172Z,87.80
2018-12-03T08:13:29.831Z,86.80
2018-12-03T08:18:33.454Z,87.60
2018-12-03T08:24:03.689Z,87.00
2018-12-03T08:29:07.268Z,87.00
2018-12-03T08:34:11.212Z,87.20
2018-12-03T08:39:14.798Z,87.30
2018-12-03T08:44:18.589Z,87.30
2018-12-03T08:49:22.238Z,86.50
2018-12-03T08:54:28.214Z,86.00
2018-12-03T08:59:33.900Z,86.10
2018-12-03T09:04:37.544Z,84.70
2018-12-03T09:09:41.109Z,84.00
2018-12-03T09:14:44.677Z,84.50
2018-12-03T09:19:50.501Z,83.90
2018-12-03T09:24:54.117Z,83.70
2018-12-03T09:29:59.455Z,83.30
2018-12-03T09:35:07.472Z,82.40
2018-12-03T09:40:15.821Z,81.70
2018-12-03T09:45:20.399Z,81.30
2018-12-03T09:50:29.258Z,81.60
2018-12-03T09:55:33.584Z,82.20
2018-12-03T10:00:37.595Z,81.60
2018-12-03T10:05:48.289Z,82.00
2018-12-03T10:11:06.745Z,81.50
2018-12-03T10:16:11.048Z,81.80
2018-12-03T10:21:14.674Z,81.30
2018-12-03T10:26:18.241Z,81.50
2018-12-03T10:31:23.448Z,81.10
2018-12-03T10:36:27.358Z,81.10
2018-12-03T10:41:32.185Z,80.10
2018-12-03T10:46:35.774Z,78.90
2018-12-03T10:51:39.393Z,80.00
2018-12-03T10:56:43.031Z,79.30
2018-12-03T11:01:51.854Z,78.70
2018-12-03T11:06:55.431Z,79.30
2018-12-03T11:11:59.361Z,79.00
2018-12-03T11:17:02.978Z,78.30
2018-12-03T11:22:06.932Z,78.20
2018-12-03T11:27:10.571Z,78.70
2018-12-03T11:32:19.765Z,77.90
2018-12-03T11:37:23.644Z,77.90
2018-12-03T11:42:30.265Z,76.90
2018-12-03T11:47:33.921Z,77.50
2018-12-03T11:53:20.316Z,76.10
2018-12-03T11:58:23.148Z,75.70
2018-12-03T12:03:25.745Z,75.50
2018-12-03T12:08:28.340Z,75.40
2018-12-03T12:13:30.955Z,75.50
2018-12-03T12:18:33.523Z,74.50
2018-12-03T12:23:36.098Z,74.90
2018-12-03T12:28:41.421Z,73.80
2018-12-03T12:33:44.009Z,74.00
2018-12-03T12:38:46.580Z,74.00
2018-12-03T12:43:49.165Z,74.90
2018-12-03T12:48:51.934Z,75.80
2018-12-03T12:53:54.515Z,77.30
2018-12-03T12:58:57.103Z,77.20
2018-12-03T13:03:59.677Z,77.10
2018-12-03T13:09:02.233Z,75.70
2018-12-03T13:14:05.072Z,75.50
2018-12-03T13:19:07.655Z,75.60
2018-12-03T13:24:10.807Z,76.80
2018-12-03T13:29:13.373Z,77.40
2018-12-03T13:34:15.942Z,78.20
2018-12-03T13:39:18.521Z,78.00
2018-12-03T13:44:21.089Z,78.70
2018-12-03T13:49:23.674Z,79.20
2018-12-03T13:54:26.275Z,79.30
2018-12-03T13:59:28.849Z,79.00
2018-12-03T14:04:31.437Z,80.90
2018-12-03T14:09:34.804Z,81.60
2018-12-03T14:14:37.426Z,81.10
2018-12-03T14:19:40.133Z,80.70
2018-12-03T14:24:42.781Z,80.40
2018-12-03T14:29:45.375Z,80.40
2018-12-03T14:34:47.950Z,79.70
2018-12-03T14:39:50.539Z,79.30
2018-12-03T14:44:53.134Z,78.90
2018-12-03T14:49:55.719Z,78.50
2018-12-03T14:54:58.304Z,78.10
2018-12-03T15:00:00.915Z,78.20
2018-12-03T15:05:04.241Z,78.00
2018-12-03T15:10:06.901Z,78.20
2018-12-03T15:15:09.860Z,78.50
2018-12-03T15:20:12.673Z,79.10
2018-12-03T15:25:15.262Z,78.30
2018-12-03T15:30:17.862Z,78.50
2018-12-03T15:35:20.442Z,78.30
2018-12-03T15:40:23.059Z,78.70
2018-12-03T15:45:25.798Z,78.00
2018-12-03T15:50:28.608Z,77.70
2018-12-03T15:55:31.187Z,77.30
2018-12-03T16:00:33.881Z,77.30
2018-12-03T16:05:36.453Z,76.80
2018-12-03T16:10:39.033Z,76.70
2018-12-03T16:15:41.624Z,76.60
2018-12-03T16:20:44.269Z,76.10
2018-12-03T16:25:46.850Z,75.60
2018-12-03T16:30:49.445Z,75.30
2018-12-03T16:35:52.036Z,75.20
2018-12-03T16:40:54.621Z,75.00
2018-12-03T16:45:57.201Z,74.40
2018-12-03T16:50:59.781Z,74.40
2018-12-03T16:56:02.701Z,75.10
2018-12-03T17:01:05.287Z,73.80
2018-12-03T17:06:07.872Z,73.90
2018-12-03T17:11:10.452Z,73.90
2018-12-03T17:16:13.037Z,74.40
2018-12-03T17:21:16.847Z,73.90
2018-12-03T17:26:19.437Z,73.90
2018-12-03T17:31:22.844Z,74.60
2018-12-03T17:36:26.204Z,74.20
2018-12-03T17:41:28.786Z,74.20
2018-12-03T17:46:32.011Z,73.90
2018-12-03T17:51:34.630Z,73.40
2018-12-03T17:56:37.867Z,72.40
2018-12-03T18:01:40.458Z,72.40
2018-12-03T18:06:43.071Z,72.10
2018-12-03T18:11:45.714Z,73.90
2018-12-03T18:16:48.290Z,76.20
2018-12-03T18:21:50.934Z,77.30
2018-12-03T18:26:53.815Z,78.30
2018-12-03T18:31:56.481Z,78.90
2018-12-03T18:36:59.073Z,79.00
2018-12-03T18:42:01.675Z,79.40
2018-12-03T18:47:04.269Z,81.00
2018-12-03T18:52:06.967Z,82.90
2018-12-03T18:57:09.569Z,85.10
2018-12-03T19:02:12.223Z,86.70
2018-12-03T19:07:14.859Z,86.70
2018-12-03T19:12:17.444Z,86.50
2018-12-03T19:17:20.011Z,86.30
2018-12-03T19:22:22.570Z,88.20
2018-12-03T19:27:25.121Z,87.40
2018-12-03T19:32:27.699Z,85.40
2018-12-03T19:37:30.269Z,84.00
2018-12-03T19:42:32.825Z,84.00
2018-12-03T19:47:36.255Z,83.20
2018-12-03T19:52:38.893Z,83.60
2018-12-03T19:57:41.446Z,83.30
2018-12-03T20:02:43.998Z,83.40
2018-12-03T20:07:46.566Z,83.00
2018-12-03T20:12:49.126Z,83.10
2018-12-03T20:17:51.691Z,82.70
2018-12-03T20:22:54.869Z,80.90
2018-12-03T20:27:57.440Z,79.60
2018-12-03T20:33:00.075Z,79.60
2018-12-03T20:38:02.714Z,79.80
2018-12-03T20:43:06.085Z,79.30
2018-12-03T20:48:08.642Z,78.60
2018-12-03T20:53:11.298Z,78.50
2018-12-03T20:58:13.857Z,78.40
2018-12-03T21:03:16.437Z,78.20
2018-12-03T21:08:19.337Z,78.70
2018-12-03T21:13:21.911Z,78.70
2018-12-03T21:18:24.473Z,78.30
2018-12-03T21:23:27.057Z,78.40
2018-12-03T21:28:29.646Z,77.80
2018-12-03T21:33:32.281Z,77.80
2018-12-03T21:38:35.547Z,77.60
2018-12-03T21:43:38.109Z,77.30
2018-12-03T21:48:40.676Z,77.20
2018-12-03T21:53:43.232Z,77.70
2018-12-03T21:58:45.786Z,77.20
2018-12-03T22:03:49.018Z,77.20
2018-12-03T22:08:51.581Z,77.00
2018-12-03T22:13:54.235Z,76.90
2018-12-03T22:18:56.785Z,77.00
2018-12-03T22:23:59.346Z,76.80
2018-12-03T22:29:02.150Z,77.20
2018-12-03T22:34:04.704Z,77.30
2018-12-03T22:39:07.263Z,77.10
2018-12-03T22:44:10.368Z,77.30
2018-12-03T22:49:12.942Z,77.50
2018-12-03T22:54:15.497Z,77.70
2018-12-03T22:59:18.071Z,78.20
2018-12-03T23:04:20.628Z,77.80
2018-12-03T23:09:23.722Z,77.50
2018-12-03T23:14:26.429Z,77.40
2018-12-03T23:19:29.006Z,77.00
2018-12-03T23:24:31.563Z,77.00
2018-12-03T23:29:34.121Z,76.90
2018-12-03T23:34:36.677Z,76.70
2018-12-03T23:39:39.245Z,76.30
2018-12-03T23:44:41.797Z,76.60
2018-12-03T23:49:44.392Z,75.30
2018-12-03T23:54:46.959Z,75.70
2018-12-03T23:59:49.848Z,75.50
